createdAt,value
2018-09-12T00:01:37.678Z,26.40
2018-09-12T00:04:09.332Z,29.40
2018-09-12T00:06:40.794Z,25.00
2018-09-12T00:09:13.252Z,26.20
2018-09-12T00:11:45.056Z,29.20
2018-09-12T00:14:16.821Z,40.00
2018-09-12T00:16:48.447Z,36.40
2018-09-12T00:19:20.196Z,28.60
2018-09-12T00:21:51.796Z,36.00
2018-09-12T00:24:23.320Z,33.40
2018-09-12T00:26:55.203Z,35.00
2018-09-12T00:29:28.371Z,33.20
2018-09-12T00:32:00.257Z,38.00
2018-09-12T00:34:31.663Z,33.40
2018-09-12T00:37:03.083Z,35.60
2018-09-12T00:39:34.581Z,33.20
2018-09-12T00:42:06.458Z,39.60
2018-09-12T00:44:38.368Z,40.00
2018-09-12T00:47:09.954Z,40.80
2018-09-12T00:49:41.602Z,37.40
2018-09-12T00:52:13.449Z,43.80
2018-09-12T00:54:45.177Z,46.60
2018-09-12T00:57:16.913Z,46.20
2018-09-12T00:59:48.598Z,44.60
2018-09-12T01:02:20.199Z,43.20
2018-09-12T01:04:52.781Z,44.60
2018-09-12T01:07:24.756Z,40.20
2018-09-12T01:09:56.550Z,48.20
2018-09-12T01:12:28.349Z,40.40
2018-09-12T01:14:59.752Z,38.60
2018-09-12T01:17:31.417Z,34.80
2018-09-12T01:20:02.964Z,37.40
2018-09-12T01:22:34.679Z,39.40
2018-09-12T01:25:06.473Z,34.80
2018-09-12T01:27:38.296Z,38.80
2018-09-12T01:30:15.266Z,42.20
2018-09-12T01:32:46.927Z,44.80
2018-09-12T01:35:18.624Z,40.40
2018-09-12T01:37:50.488Z,36.20
2018-09-12T01:40:22.124Z,42.40
2018-09-12T01:42:53.967Z,39.60
2018-09-12T01:45:25.539Z,42.20
2018-09-12T01:47:57.223Z,36.40
2018-09-12T01:50:28.967Z,41.00
2018-09-12T01:53:00.871Z,39.60
2018-09-12T01:55:32.471Z,39.40
2018-09-12T01:58:04.165Z,43.20
2018-09-12T02:00:40.937Z,44.40
2018-09-12T02:03:12.597Z,36.40
2018-09-12T02:05:44.466Z,40.40
2018-09-12T02:08:16.196Z,41.60
2018-09-12T02:10:47.654Z,46.20
2018-09-12T02:13:19.040Z,43.00
2018-09-12T02:15:51.041Z,40.00
2018-09-12T02:18:22.769Z,39.20
2018-09-12T02:20:54.424Z,41.20
2018-09-12T02:23:25.947Z,34.40
2018-09-12T02:25:57.672Z,41.00
2018-09-12T02:28:29.398Z,46.00
2018-09-12T02:31:01.711Z,29.40
2018-09-12T02:33:33.898Z,45.40
2018-09-12T02:36:10.249Z,43.00
2018-09-12T02:38:41.904Z,34.40
2018-09-12T02:41:13.558Z,39.20
2018-09-12T02:43:45.330Z,40.40
2018-09-12T02:46:17.240Z,31.60
2018-09-12T02:48:49.005Z,35.40
2018-09-12T02:51:20.721Z,42.80
2018-09-12T02:53:52.774Z,37.60
2018-09-12T02:56:24.894Z,41.80
2018-09-12T03:04:09.856Z,43.80
2018-09-12T03:06:41.726Z,35.20
2018-09-12T03:09:13.603Z,35.60
2018-09-12T03:11:45.289Z,36.40
2018-09-12T03:14:16.930Z,38.00
2018-09-12T03:16:48.735Z,33.60
2018-09-12T03:19:20.784Z,38.20
2018-09-12T03:21:52.493Z,39.00
2018-09-12T03:24:24.440Z,34.20
2018-09-12T03:26:56.052Z,36.80
2018-09-12T03:29:27.053Z,38.40
2018-09-12T03:31:58.774Z,41.00
2018-09-12T03:34:30.834Z,38.80
2018-09-12T03:37:03.006Z,35.40
2018-09-12T03:39:34.794Z,36.40
2018-09-12T03:42:06.437Z,38.00
2018-09-12T03:44:38.229Z,32.20
2018-09-12T03:47:09.758Z,34.80
2018-09-12T03:49:41.490Z,45.80
2018-09-12T03:52:13.213Z,35.80
2018-09-12T03:54:44.757Z,36.60
2018-09-12T03:57:16.256Z,41.00
2018-09-12T03:59:48.024Z,37.60
2018-09-12T04:02:19.698Z,43.60
2018-09-12T04:05:54.220Z,42.60
2018-09-12T04:08:25.697Z,41.20
2018-09-12T04:10:57.494Z,37.00
2018-09-12T04:13:29.263Z,39.60
2018-09-12T04:16:00.745Z,34.20
2018-09-12T04:18:32.449Z,42.20
2018-09-12T04:21:04.026Z,36.20
2018-09-12T04:23:35.908Z,41.80
2018-09-12T04:26:07.660Z,45.80
2018-09-12T04:28:39.298Z,39.40
2018-09-12T04:31:10.915Z,37.60
2018-09-12T04:33:42.593Z,37.40
2018-09-12T04:36:14.610Z,42.00
2018-09-12T04:38:46.442Z,29.80
2018-09-12T04:41:18.476Z,35.20
2018-09-12T04:43:50.226Z,35.80
2018-09-12T04:46:22.060Z,34.80
2018-09-12T04:48:53.697Z,35.20
2018-09-12T04:51:26.189Z,36.20
2018-09-12T04:53:57.625Z,33.60
2018-09-12T04:56:29.335Z,37.80
2018-09-12T04:59:01.009Z,35.60
2018-09-12T05:01:33.063Z,37.80
2018-09-12T05:04:04.633Z,44.00
2018-09-12T05:06:36.432Z,40.40
2018-09-12T05:09:11.158Z,36.60
2018-09-12T05:11:43.018Z,40.60
2018-09-12T05:14:14.982Z,41.60
2018-09-12T05:16:46.985Z,37.20
2018-09-12T05:19:18.474Z,38.00
2018-09-12T05:21:50.170Z,38.80
2018-09-12T05:24:21.807Z,38.20
2018-09-12T05:26:53.363Z,40.60
2018-09-12T05:29:25.707Z,39.80
2018-09-12T05:31:58.172Z,33.00
2018-09-12T05:34:30.030Z,37.00
2018-09-12T05:37:01.751Z,35.60
2018-09-12T05:39:33.353Z,41.60
2018-09-12T05:42:05.277Z,39.00
2018-09-12T05:44:37.882Z,43.40
2018-09-12T05:47:09.419Z,43.00
2018-09-12T05:49:40.987Z,42.40
2018-09-12T05:52:12.633Z,37.00
2018-09-12T05:54:44.317Z,35.00
2018-09-12T05:57:16.014Z,35.60
2018-09-12T05:59:47.549Z,32.40
2018-09-12T06:02:19.126Z,38.20
2018-09-12T06:04:50.769Z,38.20
2018-09-12T06:07:22.614Z,36.00
2018-09-12T06:09:54.515Z,44.60
2018-09-12T06:12:26.193Z,41.80
2018-09-12T06:14:57.871Z,40.20
2018-09-12T06:17:29.499Z,42.80
2018-09-12T06:20:01.114Z,38.80
2018-09-12T06:22:32.928Z,46.60
2018-09-12T06:25:04.545Z,42.00
2018-09-12T06:27:36.210Z,39.40
2018-09-12T06:30:08.617Z,45.00
2018-09-12T06:32:40.379Z,43.80
2018-09-12T06:35:12.258Z,39.00
2018-09-12T06:37:43.921Z,40.80
2018-09-12T06:40:15.644Z,39.00
2018-09-12T06:42:47.407Z,39.60
2018-09-12T06:45:20.324Z,32.40
2018-09-12T06:47:52.580Z,35.80
2018-09-12T06:50:24.568Z,36.60
2018-09-12T06:52:56.109Z,40.60
2018-09-12T06:55:28.243Z,36.20
2018-09-12T06:57:59.821Z,35.80
2018-09-12T07:00:31.825Z,38.40
2018-09-12T07:03:03.289Z,38.80
2018-09-12T07:05:35.024Z,37.60
2018-09-12T07:08:06.639Z,36.60
2018-09-12T07:10:38.400Z,38.20
2018-09-12T07:13:10.220Z,34.40
2018-09-12T07:15:41.815Z,33.20
2018-09-12T07:18:13.683Z,35.80
2018-09-12T07:20:45.503Z,32.40
2018-09-12T07:23:17.208Z,31.40
2018-09-12T07:25:48.826Z,38.20
2018-09-12T07:28:20.696Z,35.40
2018-09-12T07:30:53.188Z,35.00
2018-09-12T07:33:25.039Z,33.40
2018-09-12T07:35:56.645Z,37.60
2018-09-12T07:38:28.401Z,36.80
2018-09-12T07:41:00.021Z,30.60
2018-09-12T07:43:31.858Z,36.00
2018-09-12T07:46:04.951Z,36.80
2018-09-12T07:48:36.912Z,33.00
2018-09-12T07:51:08.741Z,33.40
2018-09-12T07:53:40.560Z,34.20
2018-09-12T07:56:12.148Z,34.60
2018-09-12T07:58:44.465Z,24.80
2018-09-12T08:01:16.330Z,31.40
2018-09-12T08:03:48.260Z,32.20
2018-09-12T08:06:20.088Z,29.00
2018-09-12T08:08:51.789Z,31.40
2018-09-12T08:11:23.584Z,31.80
2018-09-12T08:13:55.461Z,30.40
2018-09-12T08:16:27.127Z,33.60
2018-09-12T08:18:58.947Z,29.00
2018-09-12T08:21:30.604Z,30.80
2018-09-12T08:24:01.877Z,27.80
2018-09-12T08:26:33.583Z,36.60
2018-09-12T08:29:05.309Z,29.40
2018-09-12T08:31:37.246Z,33.40
2018-09-12T08:34:08.954Z,24.80
2018-09-12T08:36:41.026Z,34.40
2018-09-12T08:39:12.747Z,30.60
2018-09-12T08:41:44.655Z,33.60
2018-09-12T08:44:16.557Z,32.60
2018-09-12T08:46:49.435Z,36.40
2018-09-12T08:49:21.057Z,26.60
2018-09-12T08:51:52.675Z,33.20
2018-09-12T08:54:24.625Z,34.40
2018-09-12T08:56:56.290Z,37.80
2018-09-12T08:59:28.136Z,31.00
2018-09-12T09:01:59.800Z,31.40
2018-09-12T09:04:31.495Z,28.00
2018-09-12T09:07:03.310Z,25.60
2018-09-12T09:09:35.024Z,25.40
2018-09-12T09:12:06.688Z,30.80
2018-09-12T09:14:38.487Z,29.60
2018-09-12T09:17:10.210Z,30.60
2018-09-12T09:19:42.017Z,28.80
2018-09-12T09:22:13.677Z,28.00
2018-09-12T09:24:45.833Z,24.60
2018-09-12T09:27:17.440Z,25.00
2018-09-12T09:29:49.189Z,30.00
2018-09-12T09:32:21.741Z,30.00
2018-09-12T09:34:53.662Z,27.60
2018-09-12T09:37:25.481Z,33.20
2018-09-12T09:39:57.980Z,32.60
2018-09-12T09:42:29.498Z,28.20
2018-09-12T09:45:01.240Z,26.20
2018-09-12T09:47:34.358Z,25.80
2018-09-12T09:50:06.339Z,27.60
2018-09-12T09:52:38.118Z,28.80
2018-09-12T09:55:09.998Z,26.60
2018-09-12T09:57:41.678Z,28.40
2018-09-12T10:00:18.113Z,29.40
2018-09-12T10:02:54.292Z,27.00
2018-09-12T10:06:30.368Z,26.20
2018-09-12T10:09:07.042Z,30.80
2018-09-12T10:11:39.011Z,25.00
2018-09-12T10:14:10.736Z,26.20
2018-09-12T10:16:47.111Z,28.00
2018-09-12T10:19:18.857Z,26.40
2018-09-12T10:21:50.706Z,28.20
2018-09-12T10:24:22.546Z,25.20
2018-09-12T10:26:54.422Z,24.20
2018-09-12T10:29:26.045Z,25.00
2018-09-12T10:31:57.823Z,27.60
2018-09-12T10:34:29.586Z,28.40
2018-09-12T10:37:01.439Z,27.00
2018-09-12T10:39:33.054Z,26.40
2018-09-12T10:42:05.222Z,23.40
2018-09-12T10:44:37.032Z,22.60
2018-09-12T10:47:08.896Z,25.80
2018-09-12T10:49:40.724Z,25.00
2018-09-12T10:52:13.893Z,26.80
2018-09-12T10:54:45.698Z,23.40
2018-09-12T10:57:17.486Z,25.80
2018-09-12T10:59:49.206Z,18.40
2018-09-12T11:02:20.981Z,22.60
2018-09-12T11:04:52.718Z,24.40
2018-09-12T11:07:24.361Z,27.80
2018-09-12T11:09:56.164Z,23.00
2018-09-12T11:12:28.185Z,25.80
2018-09-12T11:14:59.899Z,28.20
2018-09-12T11:17:31.767Z,30.00
2018-09-12T11:20:03.434Z,28.80
2018-09-12T11:22:35.547Z,24.20
2018-09-12T11:25:07.238Z,26.80
2018-09-12T11:27:39.622Z,24.60
2018-09-12T11:30:11.387Z,28.40
2018-09-12T11:32:43.223Z,22.20
2018-09-12T11:35:14.874Z,23.80
2018-09-12T11:37:46.712Z,24.00
2018-09-12T11:40:18.494Z,25.60
2018-09-12T11:42:50.323Z,25.60
2018-09-12T11:45:22.044Z,25.00
2018-09-12T11:47:53.909Z,21.80
2018-09-12T11:50:25.589Z,25.40
2018-09-12T11:52:57.460Z,28.60
2018-09-12T11:55:29.341Z,28.80
2018-09-12T11:58:01.102Z,25.20
2018-09-12T12:00:32.912Z,28.20
2018-09-12T12:03:04.625Z,27.60
2018-09-12T12:05:36.322Z,25.40
2018-09-12T12:08:07.860Z,24.40
2018-09-12T12:10:39.617Z,24.60
2018-09-12T12:13:11.257Z,27.20
2018-09-12T12:15:42.867Z,33.80
2018-09-12T12:18:14.487Z,28.60
2018-09-12T12:20:46.101Z,32.80
2018-09-12T12:23:18.241Z,28.80
2018-09-12T12:25:49.969Z,30.20
2018-09-12T12:28:22.408Z,31.60
2018-09-12T12:30:53.804Z,28.80
2018-09-12T12:33:25.576Z,28.60
2018-09-12T12:35:59.985Z,27.80
2018-09-12T12:38:31.745Z,27.80
2018-09-12T12:41:03.372Z,30.00
2018-09-12T12:43:35.316Z,31.40
2018-09-12T12:46:07.058Z,28.20
2018-09-12T12:48:39.200Z,28.60
2018-09-12T12:51:10.769Z,27.20
2018-09-12T12:53:42.623Z,29.80
2018-09-12T12:56:14.234Z,28.40
2018-09-12T12:58:45.765Z,29.00
2018-09-12T13:01:17.506Z,33.60
2018-09-12T13:03:49.055Z,33.60
2018-09-12T13:06:20.753Z,27.80
2018-09-12T13:08:52.600Z,26.40
2018-09-12T13:11:24.295Z,26.80
2018-09-12T13:13:55.994Z,23.80
2018-09-12T13:16:27.764Z,25.00
2018-09-12T13:18:59.685Z,22.80
2018-09-12T13:21:31.513Z,25.80
2018-09-12T13:24:03.149Z,20.60
2018-09-12T13:26:34.690Z,22.60
2018-09-12T13:29:07.129Z,27.40
2018-09-12T13:31:38.677Z,23.60
2018-09-12T13:34:10.765Z,30.80
2018-09-12T13:36:42.423Z,27.00
2018-09-12T13:39:16.701Z,30.00
2018-09-12T13:41:48.463Z,27.40
2018-09-12T13:44:20.375Z,27.20
2018-09-12T13:46:52.259Z,24.40
2018-09-12T13:49:24.278Z,28.00
2018-09-12T13:51:57.313Z,27.00
2018-09-12T13:54:29.147Z,29.80
2018-09-12T13:57:00.748Z,28.20
2018-09-12T13:59:32.568Z,26.40
2018-09-12T14:02:04.360Z,35.60
2018-09-12T14:04:36.476Z,30.40
2018-09-12T14:07:08.199Z,29.20
2018-09-12T14:09:40.133Z,31.20
2018-09-12T14:12:11.534Z,28.20
2018-09-12T14:14:43.431Z,31.40
2018-09-12T14:17:14.715Z,29.40
2018-09-12T14:19:45.994Z,25.60
2018-09-12T14:22:17.308Z,29.60
2018-09-12T14:24:48.670Z,29.80
2018-09-12T14:27:20.435Z,25.80
2018-09-12T14:29:52.278Z,30.20
2018-09-12T14:32:23.982Z,27.60
2018-09-12T14:34:55.825Z,29.20
2018-09-12T14:37:27.404Z,29.40
2018-09-12T14:39:58.935Z,35.20
2018-09-12T14:42:30.739Z,36.60
2018-09-12T14:45:02.684Z,31.60
2018-09-12T14:47:34.463Z,41.00
2018-09-12T14:50:06.617Z,34.20
2018-09-12T14:52:38.248Z,30.20
2018-09-12T14:55:10.018Z,36.60
2018-09-12T14:57:41.747Z,34.40
2018-09-12T15:00:17.788Z,34.60
2018-09-12T15:02:49.543Z,27.60
2018-09-12T15:05:21.012Z,30.40
2018-09-12T15:07:52.339Z,32.00
2018-09-12T15:10:23.799Z,28.40
2018-09-12T15:12:55.109Z,36.20
2018-09-12T15:15:27.116Z,29.80
2018-09-12T15:17:58.793Z,36.60
2018-09-12T15:20:30.538Z,32.60
2018-09-12T15:23:02.161Z,33.60
2018-09-12T15:25:34.028Z,30.20
2018-09-12T15:28:05.679Z,35.60
2018-09-12T15:30:38.639Z,33.20
2018-09-12T15:33:10.414Z,28.40
2018-09-12T15:35:42.276Z,31.80
2018-09-12T15:38:13.952Z,28.60
2018-09-12T15:40:45.804Z,32.00
2018-09-12T15:43:17.629Z,30.00
2018-09-12T15:45:49.633Z,30.60
2018-09-12T15:48:21.309Z,34.00
2018-09-12T15:50:52.882Z,35.00
2018-09-12T15:53:24.475Z,31.80
2018-09-12T15:55:56.374Z,29.60
2018-09-12T15:58:28.379Z,27.00
2018-09-12T16:01:00.131Z,29.60
2018-09-12T16:03:31.825Z,27.00
2018-09-12T16:06:03.703Z,27.60
2018-09-12T16:08:35.286Z,28.60
2018-09-12T16:11:06.917Z,31.40
2018-09-12T16:13:38.423Z,32.20
2018-09-12T16:16:10.547Z,31.60
2018-09-12T16:18:42.343Z,28.80
2018-09-12T16:21:14.350Z,30.00
2018-09-12T16:23:46.081Z,27.80
2018-09-12T16:26:17.896Z,29.20
2018-09-12T16:28:49.583Z,29.00
2018-09-12T16:31:22.512Z,29.60
2018-09-12T16:33:54.109Z,31.00
2018-09-12T16:36:26.248Z,26.20
2018-09-12T16:38:58.822Z,25.40
2018-09-12T16:41:30.358Z,30.00
2018-09-12T16:44:02.111Z,29.20
2018-09-12T16:46:33.858Z,26.20
2018-09-12T16:49:05.548Z,27.40
2018-09-12T16:51:37.381Z,23.80
2018-09-12T16:54:09.715Z,27.00
2018-09-12T16:56:41.317Z,28.80
2018-09-12T16:59:16.093Z,24.20
2018-09-12T17:01:48.074Z,18.00
2018-09-12T17:04:19.524Z,17.00
2018-09-12T17:06:51.398Z,22.60
2018-09-12T17:09:22.777Z,25.40
2018-09-12T17:11:54.493Z,20.20
2018-09-12T17:14:26.126Z,25.00
2018-09-12T17:16:58.014Z,28.60
2018-09-12T17:19:29.691Z,24.40
2018-09-12T17:22:01.350Z,32.60
2018-09-12T17:24:33.459Z,25.20
2018-09-12T17:27:05.178Z,24.40
2018-09-12T17:29:37.163Z,27.80
2018-09-12T17:32:09.356Z,24.60
2018-09-12T17:34:41.013Z,27.20
2018-09-12T17:37:12.632Z,31.00
2018-09-12T17:39:44.330Z,27.40
2018-09-12T17:42:16.016Z,29.20
2018-09-12T17:44:47.675Z,25.60
2018-09-12T17:47:19.533Z,24.20
2018-09-12T17:49:51.392Z,26.40
2018-09-12T17:52:23.220Z,26.40
2018-09-12T17:54:55.139Z,23.80
2018-09-12T17:57:26.701Z,21.00
2018-09-12T17:59:58.353Z,22.00
2018-09-12T18:02:30.629Z,28.40
2018-09-12T18:05:02.310Z,26.40
2018-09-12T18:07:34.256Z,34.20
2018-09-12T18:10:05.958Z,32.40
2018-09-12T18:12:37.431Z,33.60
2018-09-12T18:15:09.113Z,33.80
2018-09-12T18:17:41.101Z,31.00
2018-09-12T18:20:12.847Z,30.60
2018-09-12T18:22:44.701Z,33.00
2018-09-12T18:25:16.267Z,37.00
2018-09-12T18:27:48.080Z,37.20
2018-09-12T18:30:20.474Z,33.80
2018-09-12T18:32:51.924Z,36.40
2018-09-12T18:35:23.539Z,35.80
2018-09-12T18:37:55.085Z,39.20
2018-09-12T18:40:26.619Z,31.00
2018-09-12T18:42:58.332Z,34.40
2018-09-12T18:45:29.701Z,27.60
2018-09-12T18:48:01.696Z,31.00
2018-09-12T18:50:33.219Z,28.60
2018-09-12T18:53:05.052Z,34.40
2018-09-12T18:55:36.642Z,30.40
2018-09-12T18:58:08.520Z,27.80
2018-09-12T19:00:40.155Z,27.60
2018-09-12T19:03:12.007Z,26.40
2018-09-12T19:05:43.738Z,26.80
2018-09-12T19:08:15.451Z,32.80
2018-09-12T19:10:47.283Z,30.80
2018-09-12T19:13:19.377Z,29.00
2018-09-12T19:15:51.422Z,24.00
2018-09-12T19:18:23.569Z,21.00
2018-09-12T19:20:55.573Z,26.80
2018-09-12T19:23:27.320Z,23.40
2018-09-12T19:25:58.788Z,28.40
2018-09-12T19:28:30.469Z,30.20
2018-09-12T19:31:02.459Z,29.00
2018-09-12T19:33:34.212Z,27.20
2018-09-12T19:36:05.918Z,26.20
2018-09-12T19:38:37.746Z,32.40
2018-09-12T19:41:09.374Z,31.20
2018-09-12T19:43:41.217Z,24.60
2018-09-12T19:46:12.895Z,29.00
2018-09-12T19:48:44.743Z,27.60
2018-09-12T19:51:17.105Z,23.20
2018-09-12T19:53:48.835Z,26.00
2018-09-12T19:56:20.826Z,24.20
2018-09-12T19:58:52.738Z,25.40
2018-09-12T20:01:25.559Z,24.00
2018-09-12T20:03:57.330Z,24.80
2018-09-12T20:06:29.011Z,26.00
2018-09-12T20:09:00.905Z,27.00
2018-09-12T20:11:32.399Z,22.00
2018-09-12T20:14:04.229Z,23.60
2018-09-12T20:16:35.870Z,23.40
2018-09-12T20:19:07.761Z,23.60
2018-09-12T20:21:39.278Z,24.60
2018-09-12T20:24:10.951Z,25.00
2018-09-12T20:26:42.982Z,24.20
2018-09-12T20:29:14.845Z,23.60
2018-09-12T20:31:46.970Z,23.60
2018-09-12T20:34:18.685Z,22.40
2018-09-12T20:36:50.315Z,23.80
2018-09-12T20:39:22.123Z,26.60
2018-09-12T20:41:54.226Z,26.60
2018-09-12T20:44:27.063Z,27.20
2018-09-12T20:46:58.760Z,27.20
2018-09-12T20:49:30.787Z,26.20
2018-09-12T20:52:02.802Z,27.60
2018-09-12T20:54:34.529Z,26.80
2018-09-12T20:57:06.235Z,21.80
2018-09-12T20:59:38.052Z,29.20
2018-09-12T21:02:09.678Z,25.80
2018-09-12T21:04:41.389Z,27.20
2018-09-12T21:07:12.936Z,25.00
2018-09-12T21:09:44.406Z,30.80
2018-09-12T21:12:16.177Z,24.80
2018-09-12T21:14:47.798Z,24.60
2018-09-12T21:17:19.441Z,24.40
2018-09-12T21:19:51.307Z,28.00
2018-09-12T21:22:22.926Z,26.00
2018-09-12T21:24:54.632Z,24.20
2018-09-12T21:27:26.494Z,25.60
2018-09-12T21:29:58.186Z,26.80
2018-09-12T21:32:30.714Z,24.60
2018-09-12T21:35:02.447Z,25.20
2018-09-12T21:37:34.134Z,25.00
2018-09-12T21:40:06.296Z,26.40
2018-09-12T21:42:37.995Z,23.40
2018-09-12T21:45:09.697Z,24.60
2018-09-12T21:47:41.325Z,19.20
2018-09-12T21:50:13.237Z,25.00
2018-09-12T21:52:44.778Z,24.20
2018-09-12T21:55:16.508Z,27.60
2018-09-12T21:57:48.200Z,28.60
2018-09-12T22:00:20.019Z,27.40
2018-09-12T22:02:51.653Z,22.80
2018-09-12T22:05:23.125Z,24.40
2018-09-12T22:07:54.811Z,25.60
2018-09-12T22:10:26.513Z,24.60
2018-09-12T22:12:58.106Z,22.60
2018-09-12T22:15:30.256Z,23.40
2018-09-12T22:18:01.859Z,22.40
2018-09-12T22:20:33.646Z,22.40
2018-09-12T22:23:05.330Z,22.40
2018-09-12T22:25:37.141Z,26.00
2018-09-12T22:28:08.937Z,24.00
2018-09-12T22:30:40.698Z,24.60
2018-09-12T22:33:13.436Z,22.00
2018-09-12T22:35:45.218Z,23.20
2018-09-12T22:38:16.847Z,23.60
2018-09-12T22:40:48.395Z,24.60
2018-09-12T22:43:20.059Z,24.60
2018-09-12T22:45:51.605Z,25.80
2018-09-12T22:48:23.319Z,31.80
2018-09-12T22:50:55.577Z,29.00
2018-09-12T22:53:27.038Z,21.40
2018-09-12T22:55:59.261Z,25.00
2018-09-12T22:58:31.053Z,23.20
2018-09-12T23:01:02.820Z,23.80
2018-09-12T23:03:34.807Z,24.60
2018-09-12T23:06:06.605Z,23.60
2018-09-12T23:08:38.160Z,28.80
2018-09-12T23:11:09.636Z,28.80
2018-09-12T23:13:41.403Z,23.40
2018-09-12T23:16:12.884Z,24.40
2018-09-12T23:18:44.608Z,26.40
2018-09-12T23:21:16.421Z,24.80
2018-09-12T23:23:48.197Z,25.00
2018-09-12T23:26:19.941Z,25.80
2018-09-12T23:28:51.596Z,25.00
2018-09-12T23:31:23.262Z,27.60
2018-09-12T23:33:54.804Z,28.60
2018-09-12T23:36:26.599Z,29.40
2018-09-12T23:38:58.042Z,29.40
2018-09-12T23:41:29.819Z,32.00
2018-09-12T23:44:01.481Z,30.20
2018-09-12T23:46:32.947Z,28.80
2018-09-12T23:49:04.615Z,32.80
2018-09-12T23:51:36.271Z,28.20
2018-09-12T23:54:08.217Z,29.60
2018-09-12T23:56:40.677Z,33.00
2018-09-12T23:59:12.018Z,22.80
